sensor_id;sensor_type;location;lat;lon;timestamp;temperature;humidity
24384;DHT22;12504;52.870;8.798;2023-12-29T00:01:50;9.50;99.90
24384;DHT22;12504;52.870;8.798;2023-12-29T00:04:16;9.50;99.90
24384;DHT22;12504;52.870;8.798;2023-12-29T00:06:42;9.40;99.90
24384;DHT22;12504;52.870;8.798;2023-12-29T00:09:07;9.20;99.90
24384;DHT22;12504;52.870;8.798;2023-12-29T00:11:33;9.30;99.90
24384;DHT22;12504;52.870;8.798;2023-12-29T00:13:59;9.30;99.90
24384;DHT22;12504;52.870;8.798;2023-12-29T00:16:27;9.30;99.90
24384;DHT22;12504;52.870;8.798;2023-12-29T00:18:53;9.30;99.90
24384;DHT22;12504;52.870;8.798;2023-12-29T00:21:18;9.30;99.90
24384;DHT22;12504;52.870;8.798;2023-12-29T00:23:44;9.40;99.90
24384;DHT22;12504;52.870;8.798;2023-12-29T00:26:10;9.40;99.90
24384;DHT22;12504;52.870;8.798;2023-12-29T00:28:36;9.40;99.90
24384;DHT22;12504;52.870;8.798;2023-12-29T00:31:06;9.40;99.90
24384;DHT22;12504;52.870;8.798;2023-12-29T00:33:32;9.40;99.90
24384;DHT22;12504;52.870;8.798;2023-12-29T00:35:58;9.40;99.90
24384;DHT22;12504;52.870;8.798;2023-12-29T00:38:26;9.50;99.90
24384;DHT22;12504;52.870;8.798;2023-12-29T00:40:54;9.50;99.90
24384;DHT22;12504;52.870;8.798;2023-12-29T00:43:20;9.60;99.90
24384;DHT22;12504;52.870;8.798;2023-12-29T00:45:46;9.60;99.90
24384;DHT22;12504;52.870;8.798;2023-12-29T00:48:12;9.60;99.90
24384;DHT22;12504;52.870;8.798;2023-12-29T00:50:37;9.60;99.90
24384;DHT22;12504;52.870;8.798;2023-12-29T00:53:03;9.60;99.90
24384;DHT22;12504;52.870;8.798;2023-12-29T00:55:29;9.60;99.90
24384;DHT22;12504;52.870;8.798;2023-12-29T00:57:54;9.70;99.90
24384;DHT22;12504;52.870;8.798;2023-12-29T01:00:20;9.70;99.90
24384;DHT22;12504;52.870;8.798;2023-12-29T01:02:46;9.70;99.90
24384;DHT22;12504;52.870;8.798;2023-12-29T01:05:18;9.70;99.90
24384;DHT22;12504;52.870;8.798;2023-12-29T01:07:44;9.70;99.90
24384;DHT22;12504;52.870;8.798;2023-12-29T01:10:10;9.60;99.90
24384;DHT22;12504;52.870;8.798;2023-12-29T01:12:35;9.70;99.90
24384;DHT22;12504;52.870;8.798;2023-12-29T01:15:01;9.70;99.90
24384;DHT22;12504;52.870;8.798;2023-12-29T01:17:27;9.70;99.90
24384;DHT22;12504;52.870;8.798;2023-12-29T01:19:54;9.70;99.90
24384;DHT22;12504;52.870;8.798;2023-12-29T01:22:21;9.60;99.90
24384;DHT22;12504;52.870;8.798;2023-12-29T01:24:47;9.60;99.90
24384;DHT22;12504;52.870;8.798;2023-12-29T01:27:13;9.50;99.90
24384;DHT22;12504;52.870;8.798;2023-12-29T01:29:39;9.50;99.90
24384;DHT22;12504;52.870;8.798;2023-12-29T01:32:05;9.40;99.90
24384;DHT22;12504;52.870;8.798;2023-12-29T01:34:33;9.40;99.90
24384;DHT22;12504;52.870;8.798;2023-12-29T01:37:02;9.20;99.90
24384;DHT22;12504;52.870;8.798;2023-12-29T01:39:27;9.30;99.90
24384;DHT22;12504;52.870;8.798;2023-12-29T01:41:57;9.20;99.90
24384;DHT22;12504;52.870;8.798;2023-12-29T01:44:23;9.20;99.90
24384;DHT22;12504;52.870;8.798;2023-12-29T01:46:50;9.20;99.90
24384;DHT22;12504;52.870;8.798;2023-12-29T01:49:18;9.10;99.90
24384;DHT22;12504;52.870;8.798;2023-12-29T01:51:49;9.20;99.90
24384;DHT22;12504;52.870;8.798;2023-12-29T01:54:15;9.10;99.90
24384;DHT22;12504;52.870;8.798;2023-12-29T01:56:41;9.10;99.90
24384;DHT22;12504;52.870;8.798;2023-12-29T01:59:07;9.10;99.90
24384;DHT22;12504;52.870;8.798;2023-12-29T02:01:35;9.10;99.90
24384;DHT22;12504;52.870;8.798;2023-12-29T02:04:01;9.00;99.90
24384;DHT22;12504;52.870;8.798;2023-12-29T02:06:27;9.00;99.90
24384;DHT22;12504;52.870;8.798;2023-12-29T02:08:53;9.00;99.90
24384;DHT22;12504;52.870;8.798;2023-12-29T02:11:18;9.00;99.90
24384;DHT22;12504;52.870;8.798;2023-12-29T02:13:44;9.00;99.90
24384;DHT22;12504;52.870;8.798;2023-12-29T02:16:17;9.00;99.90
24384;DHT22;12504;52.870;8.798;2023-12-29T02:18:45;9.00;99.90
24384;DHT22;12504;52.870;8.798;2023-12-29T02:21:12;8.90;99.90
24384;DHT22;12504;52.870;8.798;2023-12-29T02:23:38;9.00;99.90
24384;DHT22;12504;52.870;8.798;2023-12-29T02:26:09;9.00;99.90
24384;DHT22;12504;52.870;8.798;2023-12-29T02:28:39;9.00;99.90
24384;DHT22;12504;52.870;8.798;2023-12-29T02:31:16;9.00;99.90
24384;DHT22;12504;52.870;8.798;2023-12-29T02:33:44;9.00;99.90
24384;DHT22;12504;52.870;8.798;2023-12-29T02:36:12;9.00;99.90
24384;DHT22;12504;52.870;8.798;2023-12-29T02:38:39;9.00;99.90
24384;DHT22;12504;52.870;8.798;2023-12-29T02:41:05;9.00;99.90
24384;DHT22;12504;52.870;8.798;2023-12-29T02:43:31;9.10;99.90
24384;DHT22;12504;52.870;8.798;2023-12-29T02:45:58;9.10;99.90
24384;DHT22;12504;52.870;8.798;2023-12-29T02:48:24;9.20;99.90
24384;DHT22;12504;52.870;8.798;2023-12-29T02:50:50;9.20;99.90
24384;DHT22;12504;52.870;8.798;2023-12-29T02:53:16;9.10;99.90
24384;DHT22;12504;52.870;8.798;2023-12-29T02:55:41;9.10;99.90
24384;DHT22;12504;52.870;8.798;2023-12-29T02:58:08;9.00;99.90
24384;DHT22;12504;52.870;8.798;2023-12-29T03:00:34;9.00;99.90
24384;DHT22;12504;52.870;8.798;2023-12-29T03:02:59;9.10;99.90
24384;DHT22;12504;52.870;8.798;2023-12-29T03:05:25;8.90;99.90
24384;DHT22;12504;52.870;8.798;2023-12-29T03:07:51;9.10;99.90
24384;DHT22;12504;52.870;8.798;2023-12-29T03:10:17;9.10;99.90
24384;DHT22;12504;52.870;8.798;2023-12-29T03:12:43;9.10;99.90
24384;DHT22;12504;52.870;8.798;2023-12-29T03:15:08;9.00;99.90
24384;DHT22;12504;52.870;8.798;2023-12-29T03:17:34;9.00;99.90
24384;DHT22;12504;52.870;8.798;2023-12-29T03:20:03;8.90;99.90
24384;DHT22;12504;52.870;8.798;2023-12-29T03:22:30;9.00;99.90
24384;DHT22;12504;52.870;8.798;2023-12-29T03:24:56;9.00;99.90
24384;DHT22;12504;52.870;8.798;2023-12-29T03:27:21;9.00;99.90
24384;DHT22;12504;52.870;8.798;2023-12-29T03:29:47;9.00;99.90
24384;DHT22;12504;52.870;8.798;2023-12-29T03:32:13;9.10;99.90
24384;DHT22;12504;52.870;8.798;2023-12-29T03:34:41;9.10;99.90
24384;DHT22;12504;52.870;8.798;2023-12-29T03:37:06;9.10;99.90
24384;DHT22;12504;52.870;8.798;2023-12-29T03:39:32;9.20;99.90
24384;DHT22;12504;52.870;8.798;2023-12-29T03:42:01;9.20;99.90
24384;DHT22;12504;52.870;8.798;2023-12-29T03:44:26;9.40;99.90
24384;DHT22;12504;52.870;8.798;2023-12-29T03:46:52;9.40;99.90
24384;DHT22;12504;52.870;8.798;2023-12-29T03:49:18;9.40;99.90
24384;DHT22;12504;52.870;8.798;2023-12-29T03:51:45;9.40;99.90
24384;DHT22;12504;52.870;8.798;2023-12-29T03:54:11;9.40;99.90
24384;DHT22;12504;52.870;8.798;2023-12-29T03:56:37;9.40;99.90
24384;DHT22;12504;52.870;8.798;2023-12-29T03:59:03;9.60;99.90
24384;DHT22;12504;52.870;8.798;2023-12-29T04:01:28;9.60;99.90
24384;DHT22;12504;52.870;8.798;2023-12-29T04:03:54;9.60;99.90
24384;DHT22;12504;52.870;8.798;2023-12-29T04:06:20;9.60;99.90
24384;DHT22;12504;52.870;8.798;2023-12-29T04:08:46;9.60;99.90
24384;DHT22;12504;52.870;8.798;2023-12-29T04:11:11;9.70;99.90
24384;DHT22;12504;52.870;8.798;2023-12-29T04:13:37;9.70;99.90
24384;DHT22;12504;52.870;8.798;2023-12-29T04:16:03;9.70;99.90
24384;DHT22;12504;52.870;8.798;2023-12-29T04:18:29;9.80;99.90
24384;DHT22;12504;52.870;8.798;2023-12-29T04:20:54;9.70;99.90
24384;DHT22;12504;52.870;8.798;2023-12-29T04:23:20;9.70;99.90
24384;DHT22;12504;52.870;8.798;2023-12-29T04:25:46;9.70;99.90
24384;DHT22;12504;52.870;8.798;2023-12-29T04:28:11;9.60;99.90
24384;DHT22;12504;52.870;8.798;2023-12-29T04:30:37;9.50;99.90
24384;DHT22;12504;52.870;8.798;2023-12-29T04:33:03;9.40;99.90
24384;DHT22;12504;52.870;8.798;2023-12-29T04:35:30;9.40;99.90
24384;DHT22;12504;52.870;8.798;2023-12-29T04:37:56;9.30;99.90
24384;DHT22;12504;52.870;8.798;2023-12-29T04:40:21;9.30;99.90
24384;DHT22;12504;52.870;8.798;2023-12-29T04:42:47;9.30;99.90
24384;DHT22;12504;52.870;8.798;2023-12-29T04:45:12;9.30;99.90
24384;DHT22;12504;52.870;8.798;2023-12-29T04:47:47;9.30;99.90
24384;DHT22;12504;52.870;8.798;2023-12-29T04:50:13;9.30;99.90
24384;DHT22;12504;52.870;8.798;2023-12-29T04:52:38;9.30;99.90
24384;DHT22;12504;52.870;8.798;2023-12-29T04:55:04;9.40;99.90
24384;DHT22;12504;52.870;8.798;2023-12-29T04:57:30;9.40;99.90
24384;DHT22;12504;52.870;8.798;2023-12-29T04:59:55;9.40;99.90
24384;DHT22;12504;52.870;8.798;2023-12-29T05:02:21;9.40;99.90
24384;DHT22;12504;52.870;8.798;2023-12-29T05:04:47;9.40;99.90
24384;DHT22;12504;52.870;8.798;2023-12-29T05:07:12;9.40;99.90
24384;DHT22;12504;52.870;8.798;2023-12-29T05:09:38;9.50;99.90
24384;DHT22;12504;52.870;8.798;2023-12-29T05:12:04;9.50;99.90
24384;DHT22;12504;52.870;8.798;2023-12-29T05:14:30;9.60;99.90
24384;DHT22;12504;52.870;8.798;2023-12-29T05:16:55;9.50;99.90
24384;DHT22;12504;52.870;8.798;2023-12-29T05:19:21;9.50;99.90
24384;DHT22;12504;52.870;8.798;2023-12-29T05:21:47;9.40;99.90
24384;DHT22;12504;52.870;8.798;2023-12-29T05:24:15;9.40;99.90
24384;DHT22;12504;52.870;8.798;2023-12-29T05:26:40;9.40;99.90
24384;DHT22;12504;52.870;8.798;2023-12-29T05:29:06;9.50;99.90
24384;DHT22;12504;52.870;8.798;2023-12-29T05:31:31;9.40;99.90
24384;DHT22;12504;52.870;8.798;2023-12-29T05:33:57;9.40;99.90
24384;DHT22;12504;52.870;8.798;2023-12-29T05:36:23;9.40;99.90
24384;DHT22;12504;52.870;8.798;2023-12-29T05:38:48;9.40;99.90
24384;DHT22;12504;52.870;8.798;2023-12-29T05:41:14;9.50;99.90
24384;DHT22;12504;52.870;8.798;2023-12-29T05:43:39;9.40;99.90
24384;DHT22;12504;52.870;8.798;2023-12-29T05:46:11;9.40;99.90
24384;DHT22;12504;52.870;8.798;2023-12-29T05:48:38;9.40;99.90
24384;DHT22;12504;52.870;8.798;2023-12-29T05:51:08;9.40;99.90
24384;DHT22;12504;52.870;8.798;2023-12-29T05:53:35;9.40;99.90
24384;DHT22;12504;52.870;8.798;2023-12-29T05:56:00;9.40;99.90
24384;DHT22;12504;52.870;8.798;2023-12-29T05:58:26;9.40;99.90
24384;DHT22;12504;52.870;8.798;2023-12-29T06:00:52;9.50;99.90
24384;DHT22;12504;52.870;8.798;2023-12-29T06:03:18;9.60;99.90
24384;DHT22;12504;52.870;8.798;2023-12-29T06:05:43;9.50;99.90
24384;DHT22;12504;52.870;8.798;2023-12-29T06:08:09;9.70;99.90
24384;DHT22;12504;52.870;8.798;2023-12-29T06:10:35;9.60;99.90
24384;DHT22;12504;52.870;8.798;2023-12-29T06:13:02;9.70;99.90
24384;DHT22;12504;52.870;8.798;2023-12-29T06:15:28;9.60;99.90
24384;DHT22;12504;52.870;8.798;2023-12-29T06:17:54;9.70;99.90
24384;DHT22;12504;52.870;8.798;2023-12-29T06:20:20;9.70;99.90
24384;DHT22;12504;52.870;8.798;2023-12-29T06:22:46;9.70;99.90
24384;DHT22;12504;52.870;8.798;2023-12-29T06:25:12;9.70;99.90
24384;DHT22;12504;52.870;8.798;2023-12-29T06:27:39;9.70;99.90
24384;DHT22;12504;52.870;8.798;2023-12-29T06:30:09;9.60;99.90
24384;DHT22;12504;52.870;8.798;2023-12-29T06:32:36;9.60;99.90
24384;DHT22;12504;52.870;8.798;2023-12-29T06:35:02;9.50;99.90
24384;DHT22;12504;52.870;8.798;2023-12-29T06:37:28;9.50;99.90
24384;DHT22;12504;52.870;8.798;2023-12-29T06:39:54;9.50;99.90
24384;DHT22;12504;52.870;8.798;2023-12-29T06:42:19;9.60;99.90
24384;DHT22;12504;52.870;8.798;2023-12-29T06:44:46;9.60;99.90
24384;DHT22;12504;52.870;8.798;2023-12-29T06:47:12;9.50;99.90
24384;DHT22;12504;52.870;8.798;2023-12-29T06:49:38;9.60;99.90
24384;DHT22;12504;52.870;8.798;2023-12-29T06:52:04;9.60;99.90
24384;DHT22;12504;52.870;8.798;2023-12-29T06:54:30;9.60;99.90
24384;DHT22;12504;52.870;8.798;2023-12-29T06:56:56;9.50;99.90
24384;DHT22;12504;52.870;8.798;2023-12-29T06:59:23;9.40;99.90
24384;DHT22;12504;52.870;8.798;2023-12-29T07:01:48;9.40;99.90
24384;DHT22;12504;52.870;8.798;2023-12-29T07:04:14;9.40;99.90
24384;DHT22;12504;52.870;8.798;2023-12-29T07:06:41;9.40;99.90
24384;DHT22;12504;52.870;8.798;2023-12-29T07:09:08;9.40;99.90
24384;DHT22;12504;52.870;8.798;2023-12-29T07:11:34;9.40;99.90
24384;DHT22;12504;52.870;8.798;2023-12-29T07:14:00;9.50;99.90
24384;DHT22;12504;52.870;8.798;2023-12-29T07:16:25;9.40;99.90
24384;DHT22;12504;52.870;8.798;2023-12-29T07:18:51;9.40;99.90
24384;DHT22;12504;52.870;8.798;2023-12-29T07:21:17;9.50;99.90
24384;DHT22;12504;52.870;8.798;2023-12-29T07:23:43;9.40;99.90
24384;DHT22;12504;52.870;8.798;2023-12-29T07:26:09;9.40;99.90
24384;DHT22;12504;52.870;8.798;2023-12-29T07:28:34;9.30;99.90
24384;DHT22;12504;52.870;8.798;2023-12-29T07:31:01;9.30;99.90
24384;DHT22;12504;52.870;8.798;2023-12-29T07:33:27;9.40;99.90
24384;DHT22;12504;52.870;8.798;2023-12-29T07:35:52;9.40;99.90
24384;DHT22;12504;52.870;8.798;2023-12-29T07:38:18;9.30;99.90
24384;DHT22;12504;52.870;8.798;2023-12-29T07:40:44;9.30;99.90
24384;DHT22;12504;52.870;8.798;2023-12-29T07:43:10;9.30;99.90
24384;DHT22;12504;52.870;8.798;2023-12-29T07:45:35;9.30;99.90
24384;DHT22;12504;52.870;8.798;2023-12-29T07:48:03;9.30;99.90
24384;DHT22;12504;52.870;8.798;2023-12-29T07:50:28;9.30;99.90
24384;DHT22;12504;52.870;8.798;2023-12-29T07:52:54;9.30;99.90
24384;DHT22;12504;52.870;8.798;2023-12-29T07:55:20;9.30;99.90
24384;DHT22;12504;52.870;8.798;2023-12-29T07:57:45;9.30;99.90
24384;DHT22;12504;52.870;8.798;2023-12-29T08:00:14;9.30;99.90
24384;DHT22;12504;52.870;8.798;2023-12-29T08:02:40;9.30;99.90
24384;DHT22;12504;52.870;8.798;2023-12-29T08:05:06;9.30;99.90
24384;DHT22;12504;52.870;8.798;2023-12-29T08:07:34;9.30;99.90
24384;DHT22;12504;52.870;8.798;2023-12-29T08:10:00;9.30;99.90
24384;DHT22;12504;52.870;8.798;2023-12-29T08:12:26;9.40;99.90
24384;DHT22;12504;52.870;8.798;2023-12-29T08:14:53;9.30;99.90
24384;DHT22;12504;52.870;8.798;2023-12-29T08:17:19;9.20;99.90
24384;DHT22;12504;52.870;8.798;2023-12-29T08:19:44;9.30;99.90
24384;DHT22;12504;52.870;8.798;2023-12-29T08:22:10;9.30;99.90
24384;DHT22;12504;52.870;8.798;2023-12-29T08:24:36;9.30;99.90
24384;DHT22;12504;52.870;8.798;2023-12-29T08:27:02;9.30;99.90
24384;DHT22;12504;52.870;8.798;2023-12-29T08:29:28;9.40;99.90
24384;DHT22;12504;52.870;8.798;2023-12-29T08:31:54;9.40;99.90
24384;DHT22;12504;52.870;8.798;2023-12-29T08:34:20;9.40;99.90
24384;DHT22;12504;52.870;8.798;2023-12-29T08:36:45;9.40;99.90
24384;DHT22;12504;52.870;8.798;2023-12-29T08:39:11;9.50;99.90
24384;DHT22;12504;52.870;8.798;2023-12-29T08:41:37;9.50;99.90
24384;DHT22;12504;52.870;8.798;2023-12-29T08:44:03;9.60;99.90
24384;DHT22;12504;52.870;8.798;2023-12-29T08:46:29;9.60;99.90
24384;DHT22;12504;52.870;8.798;2023-12-29T08:48:55;9.60;99.90
24384;DHT22;12504;52.870;8.798;2023-12-29T08:51:20;9.60;99.90
24384;DHT22;12504;52.870;8.798;2023-12-29T08:53:46;9.60;99.90
24384;DHT22;12504;52.870;8.798;2023-12-29T08:56:12;9.70;99.90
24384;DHT22;12504;52.870;8.798;2023-12-29T08:58:39;9.70;99.90
24384;DHT22;12504;52.870;8.798;2023-12-29T09:01:05;9.70;99.90
24384;DHT22;12504;52.870;8.798;2023-12-29T09:03:31;9.70;99.90
24384;DHT22;12504;52.870;8.798;2023-12-29T09:05:56;9.80;99.90
24384;DHT22;12504;52.870;8.798;2023-12-29T09:08:22;9.70;99.90
24384;DHT22;12504;52.870;8.798;2023-12-29T09:10:48;9.70;99.90
24384;DHT22;12504;52.870;8.798;2023-12-29T09:13:13;9.70;99.90
24384;DHT22;12504;52.870;8.798;2023-12-29T09:15:39;9.60;99.90
24384;DHT22;12504;52.870;8.798;2023-12-29T09:18:05;9.70;99.90
24384;DHT22;12504;52.870;8.798;2023-12-29T09:20:31;9.40;99.90
24384;DHT22;12504;52.870;8.798;2023-12-29T09:22:57;9.50;99.90
24384;DHT22;12504;52.870;8.798;2023-12-29T09:25:23;9.40;99.90
24384;DHT22;12504;52.870;8.798;2023-12-29T09:27:49;9.10;99.90
24384;DHT22;12504;52.870;8.798;2023-12-29T09:30:17;9.00;99.90
24384;DHT22;12504;52.870;8.798;2023-12-29T09:32:44;9.00;99.90
24384;DHT22;12504;52.870;8.798;2023-12-29T09:35:09;8.90;99.90
24384;DHT22;12504;52.870;8.798;2023-12-29T09:37:35;8.80;99.90
24384;DHT22;12504;52.870;8.798;2023-12-29T09:40:01;8.80;99.90
24384;DHT22;12504;52.870;8.798;2023-12-29T09:42:28;8.80;99.90
24384;DHT22;12504;52.870;8.798;2023-12-29T09:47:23;8.20;99.90
24384;DHT22;12504;52.870;8.798;2023-12-29T09:49:49;8.10;99.90
24384;DHT22;12504;52.870;8.798;2023-12-29T09:52:17;8.00;99.90
24384;DHT22;12504;52.870;8.798;2023-12-29T09:54:44;7.80;99.90
24384;DHT22;12504;52.870;8.798;2023-12-29T09:57:10;7.80;99.90
24384;DHT22;12504;52.870;8.798;2023-12-29T09:59:35;7.80;99.90
24384;DHT22;12504;52.870;8.798;2023-12-29T10:02:22;7.70;99.90
24384;DHT22;12504;52.870;8.798;2023-12-29T10:04:47;7.80;99.90
24384;DHT22;12504;52.870;8.798;2023-12-29T10:07:18;7.80;99.90
24384;DHT22;12504;52.870;8.798;2023-12-29T10:09:46;7.80;99.90
24384;DHT22;12504;52.870;8.798;2023-12-29T10:12:13;7.90;99.90
24384;DHT22;12504;52.870;8.798;2023-12-29T10:14:48;7.90;99.90
24384;DHT22;12504;52.870;8.798;2023-12-29T10:17:27;8.00;99.90
24384;DHT22;12504;52.870;8.798;2023-12-29T10:22:51;8.20;99.90
24384;DHT22;12504;52.870;8.798;2023-12-29T10:25:17;8.40;99.90
24384;DHT22;12504;52.870;8.798;2023-12-29T10:27:43;8.50;99.90
24384;DHT22;12504;52.870;8.798;2023-12-29T10:30:10;8.60;99.90
24384;DHT22;12504;52.870;8.798;2023-12-29T10:32:36;8.70;99.90
24384;DHT22;12504;52.870;8.798;2023-12-29T10:35:08;8.80;99.90
24384;DHT22;12504;52.870;8.798;2023-12-29T10:37:35;8.90;99.90
24384;DHT22;12504;52.870;8.798;2023-12-29T10:40:00;9.00;99.90
24384;DHT22;12504;52.870;8.798;2023-12-29T10:42:26;9.20;99.90
24384;DHT22;12504;52.870;8.798;2023-12-29T10:45:10;9.20;99.90
24384;DHT22;12504;52.870;8.798;2023-12-29T10:47:35;9.30;99.90
24384;DHT22;12504;52.870;8.798;2023-12-29T10:50:02;9.30;99.90
24384;DHT22;12504;52.870;8.798;2023-12-29T10:52:32;9.40;99.90
24384;DHT22;12504;52.870;8.798;2023-12-29T10:55:24;9.40;99.90
24384;DHT22;12504;52.870;8.798;2023-12-29T10:57:59;9.40;99.90
24384;DHT22;12504;52.870;8.798;2023-12-29T11:00:29;9.50;99.90
24384;DHT22;12504;52.870;8.798;2023-12-29T11:02:55;9.50;99.90
24384;DHT22;12504;52.870;8.798;2023-12-29T11:05:25;9.50;99.90
24384;DHT22;12504;52.870;8.798;2023-12-29T11:07:51;9.50;99.90
24384;DHT22;12504;52.870;8.798;2023-12-29T11:10:20;9.30;99.90
24384;DHT22;12504;52.870;8.798;2023-12-29T11:12:47;9.20;99.90
24384;DHT22;12504;52.870;8.798;2023-12-29T11:15:14;9.00;99.90
24384;DHT22;12504;52.870;8.798;2023-12-29T11:17:42;9.00;99.90
24384;DHT22;12504;52.870;8.798;2023-12-29T11:20:15;8.90;99.90
24384;DHT22;12504;52.870;8.798;2023-12-29T11:22:43;8.90;99.90
24384;DHT22;12504;52.870;8.798;2023-12-29T11:25:12;8.80;99.90
24384;DHT22;12504;52.870;8.798;2023-12-29T11:27:38;8.70;99.90
24384;DHT22;12504;52.870;8.798;2023-12-29T11:30:05;8.50;99.90
24384;DHT22;12504;52.870;8.798;2023-12-29T11:32:46;8.40;99.90
24384;DHT22;12504;52.870;8.798;2023-12-29T11:35:39;8.20;99.90
24384;DHT22;12504;52.870;8.798;2023-12-29T11:43:32;7.70;99.90
24384;DHT22;12504;52.870;8.798;2023-12-29T11:45:58;7.60;99.90
24384;DHT22;12504;52.870;8.798;2023-12-29T11:48:58;7.40;99.90
24384;DHT22;12504;52.870;8.798;2023-12-29T11:51:35;7.30;99.90
24384;DHT22;12504;52.870;8.798;2023-12-29T11:54:02;7.10;99.90
24384;DHT22;12504;52.870;8.798;2023-12-29T11:56:38;7.00;99.90
24384;DHT22;12504;52.870;8.798;2023-12-29T12:01:46;6.90;99.90
24384;DHT22;12504;52.870;8.798;2023-12-29T12:04:41;6.90;99.90
24384;DHT22;12504;52.870;8.798;2023-12-29T12:07:56;6.90;99.90
24384;DHT22;12504;52.870;8.798;2023-12-29T12:12:50;6.90;99.90
24384;DHT22;12504;52.870;8.798;2023-12-29T12:17:57;6.90;99.90
24384;DHT22;12504;52.870;8.798;2023-12-29T12:20:23;7.00;99.90
24384;DHT22;12504;52.870;8.798;2023-12-29T12:23:00;7.00;99.90
24384;DHT22;12504;52.870;8.798;2023-12-29T12:25:27;7.00;99.90
24384;DHT22;12504;52.870;8.798;2023-12-29T12:27:56;7.10;99.90
24384;DHT22;12504;52.870;8.798;2023-12-29T12:30:23;7.10;99.90
24384;DHT22;12504;52.870;8.798;2023-12-29T12:32:58;7.10;99.90
24384;DHT22;12504;52.870;8.798;2023-12-29T12:35:24;7.20;99.90
24384;DHT22;12504;52.870;8.798;2023-12-29T12:40:35;7.20;99.90
24384;DHT22;12504;52.870;8.798;2023-12-29T12:43:01;7.30;99.90
24384;DHT22;12504;52.870;8.798;2023-12-29T12:45:27;7.30;99.90
24384;DHT22;12504;52.870;8.798;2023-12-29T12:48:12;7.40;99.90
24384;DHT22;12504;52.870;8.798;2023-12-29T12:50:43;7.50;99.90
24384;DHT22;12504;52.870;8.798;2023-12-29T12:53:12;7.50;99.90
24384;DHT22;12504;52.870;8.798;2023-12-29T12:55:40;7.60;99.90
24384;DHT22;12504;52.870;8.798;2023-12-29T12:58:07;7.70;99.90
24384;DHT22;12504;52.870;8.798;2023-12-29T13:00:33;7.70;99.90
24384;DHT22;12504;52.870;8.798;2023-12-29T13:03:00;7.80;99.90
24384;DHT22;12504;52.870;8.798;2023-12-29T13:05:26;7.70;99.90
24384;DHT22;12504;52.870;8.798;2023-12-29T13:07:54;7.70;99.90
24384;DHT22;12504;52.870;8.798;2023-12-29T13:10:22;7.70;99.90
24384;DHT22;12504;52.870;8.798;2023-12-29T13:12:54;7.70;99.90
24384;DHT22;12504;52.870;8.798;2023-12-29T13:15:22;7.60;99.90
24384;DHT22;12504;52.870;8.798;2023-12-29T13:17:52;7.60;99.90
24384;DHT22;12504;52.870;8.798;2023-12-29T13:20:18;7.60;99.90
24384;DHT22;12504;52.870;8.798;2023-12-29T13:22:49;7.60;99.90
24384;DHT22;12504;52.870;8.798;2023-12-29T13:25:26;7.60;99.90
24384;DHT22;12504;52.870;8.798;2023-12-29T13:27:53;7.60;99.90
24384;DHT22;12504;52.870;8.798;2023-12-29T13:30:20;7.70;99.90
24384;DHT22;12504;52.870;8.798;2023-12-29T13:32:47;7.70;99.90
24384;DHT22;12504;52.870;8.798;2023-12-29T13:35:25;7.80;99.90
24384;DHT22;12504;52.870;8.798;2023-12-29T13:43:08;7.90;99.90
24384;DHT22;12504;52.870;8.798;2023-12-29T13:45:34;8.00;99.90
24384;DHT22;12504;52.870;8.798;2023-12-29T13:48:01;8.00;99.90
24384;DHT22;12504;52.870;8.798;2023-12-29T13:50:27;8.10;99.90
24384;DHT22;12504;52.870;8.798;2023-12-29T13:52:53;8.10;99.90
24384;DHT22;12504;52.870;8.798;2023-12-29T13:55:23;8.10;99.90
24384;DHT22;12504;52.870;8.798;2023-12-29T13:57:49;8.20;99.90
24384;DHT22;12504;52.870;8.798;2023-12-29T14:00:15;8.30;99.90
24384;DHT22;12504;52.870;8.798;2023-12-29T14:02:44;8.30;99.90
24384;DHT22;12504;52.870;8.798;2023-12-29T14:10:33;8.50;99.90
24384;DHT22;12504;52.870;8.798;2023-12-29T14:13:14;8.60;99.90
24384;DHT22;12504;52.870;8.798;2023-12-29T14:15:41;8.60;99.90
24384;DHT22;12504;52.870;8.798;2023-12-29T14:20:39;8.70;99.90
24384;DHT22;12504;52.870;8.798;2023-12-29T14:23:08;8.70;99.90
24384;DHT22;12504;52.870;8.798;2023-12-29T14:25:35;8.80;99.90
24384;DHT22;12504;52.870;8.798;2023-12-29T14:28:16;8.70;99.90
24384;DHT22;12504;52.870;8.798;2023-12-29T14:30:42;8.70;99.90
24384;DHT22;12504;52.870;8.798;2023-12-29T14:33:08;8.70;99.90
24384;DHT22;12504;52.870;8.798;2023-12-29T14:35:34;8.70;99.90
24384;DHT22;12504;52.870;8.798;2023-12-29T14:38:00;8.70;99.90
24384;DHT22;12504;52.870;8.798;2023-12-29T14:40:25;8.70;99.90
24384;DHT22;12504;52.870;8.798;2023-12-29T14:42:51;8.70;99.90
24384;DHT22;12504;52.870;8.798;2023-12-29T14:45:17;8.60;99.90
24384;DHT22;12504;52.870;8.798;2023-12-29T14:47:42;8.60;99.90
24384;DHT22;12504;52.870;8.798;2023-12-29T14:50:11;8.60;99.90
24384;DHT22;12504;52.870;8.798;2023-12-29T14:52:37;8.60;99.90
24384;DHT22;12504;52.870;8.798;2023-12-29T14:55:03;8.60;99.90
24384;DHT22;12504;52.870;8.798;2023-12-29T14:57:29;8.60;99.90
24384;DHT22;12504;52.870;8.798;2023-12-29T14:59:54;8.60;99.90
24384;DHT22;12504;52.870;8.798;2023-12-29T15:02:20;8.60;99.90
24384;DHT22;12504;52.870;8.798;2023-12-29T15:04:46;8.50;99.90
24384;DHT22;12504;52.870;8.798;2023-12-29T15:07:11;8.50;99.90
24384;DHT22;12504;52.870;8.798;2023-12-29T15:09:37;8.50;99.90
24384;DHT22;12504;52.870;8.798;2023-12-29T15:12:03;8.50;99.90
24384;DHT22;12504;52.870;8.798;2023-12-29T15:14:30;8.40;99.90
24384;DHT22;12504;52.870;8.798;2023-12-29T15:16:59;8.40;99.90
24384;DHT22;12504;52.870;8.798;2023-12-29T15:19:25;8.40;99.90
24384;DHT22;12504;52.870;8.798;2023-12-29T15:21:50;8.40;99.90
24384;DHT22;12504;52.870;8.798;2023-12-29T15:24:19;8.40;99.90
24384;DHT22;12504;52.870;8.798;2023-12-29T15:26:46;8.40;99.90
24384;DHT22;12504;52.870;8.798;2023-12-29T15:29:11;8.40;99.90
24384;DHT22;12504;52.870;8.798;2023-12-29T15:31:37;8.40;99.90
24384;DHT22;12504;52.870;8.798;2023-12-29T15:34:03;8.40;99.90
24384;DHT22;12504;52.870;8.798;2023-12-29T15:36:29;8.40;99.90
24384;DHT22;12504;52.870;8.798;2023-12-29T15:38:55;8.40;99.90
24384;DHT22;12504;52.870;8.798;2023-12-29T15:41:23;8.40;99.90
24384;DHT22;12504;52.870;8.798;2023-12-29T15:43:49;8.40;99.90
24384;DHT22;12504;52.870;8.798;2023-12-29T15:46:18;8.40;99.90
24384;DHT22;12504;52.870;8.798;2023-12-29T15:48:47;8.40;99.90
24384;DHT22;12504;52.870;8.798;2023-12-29T15:51:13;8.50;99.90
24384;DHT22;12504;52.870;8.798;2023-12-29T15:53:40;8.50;99.90
24384;DHT22;12504;52.870;8.798;2023-12-29T15:56:06;8.50;99.90
24384;DHT22;12504;52.870;8.798;2023-12-29T15:58:33;8.50;99.90
24384;DHT22;12504;52.870;8.798;2023-12-29T16:00:59;8.40;99.90
24384;DHT22;12504;52.870;8.798;2023-12-29T16:03:25;8.40;99.90
24384;DHT22;12504;52.870;8.798;2023-12-29T16:05:50;8.40;99.90
24384;DHT22;12504;52.870;8.798;2023-12-29T16:08:16;8.30;99.90
24384;DHT22;12504;52.870;8.798;2023-12-29T16:10:42;8.30;99.90
24384;DHT22;12504;52.870;8.798;2023-12-29T16:13:08;8.20;99.90
24384;DHT22;12504;52.870;8.798;2023-12-29T16:15:34;8.20;99.90
24384;DHT22;12504;52.870;8.798;2023-12-29T16:17:59;8.30;99.90
24384;DHT22;12504;52.870;8.798;2023-12-29T16:20:26;8.30;99.90